Belmont, TX (78604)

8:54 AM CDT on September 19, 2014 (GMT -0500)
Saltcreek Ranch | Change Station
CLOSE
Current Station
Personal Weather Station
Location: Seguin, TX
Elevation: 466 ft
Nearby Weather Stations

Elev 466 ft 29.53 °N, 97.83 °W | Updated 2 minutes ago

Partly Cloudy
Partly Cloudy
76.5 °F
Feels Like 76 °F
N
0.0
Wind Variable Wind from SE
Gusts 1.0 mph

Today
High -- | Low -- °F
--% Chance of Precip.
Yesterday
High -- | Low -- °F
Precip. -- in
7:17 AM 7:30 PM
Waning Crescent, 19% visible
Pressure 29.89 in
Visibility 1.8 miles
Clouds Overcast 300 ft
Heat Index 76 °F
Dew Point 76 °F
Humidity 99%
Rainfall 0.00 in
Snow Depth Not available.
UV 0 out of 12
Pollen 6.60 out of 12
Air Quality Not available.
Flu Activity Not available.
METAR KT20 191335Z AUTO 09003KT 1 3/4SM BR OVC003 25/25 A2989 RMK AO2 T02500247

More Conditions Fewer Conditions

Pressure 29.89 in
Visibility 1.8 miles
Clouds Overcast 300 ft
Heat Index 76 °F
Dew Point 76 °F
Humidity 99%
Rainfall 0.00 in
Snow Depth Not available.
UV 0 out of 12
Pollen 6.60 out of 12
Air Quality Not available.
Flu Activity Not available.
METAR KT20 191335Z AUTO 09003KT 1 3/4SM BR OVC003 25/25 A2989 RMK AO2 T02500247

More Conditions Fewer Conditions

10-Day Weather Forecast

Almanac

Astronomy

Sep. 19, 2014 Rise Set
Actual Time 7:17 AM CDT 7:30 PM CDT
Civil Twilight 6:53 AM CDT 7:54 PM CDT
Nautical Twilight 6:25 AM CDT 8:22 PM CDT
Astronomical Twilight 5:57 AM CDT 8:50 PM CDT
Moon 3:19 AM CDT 4:47 PM CDT
Length of Visible Light 13h 00m
Length of Day
12h 13m
Tomorrow will be 1m 46s shorter.
Waning Crescent, 19% of the Moon is Illuminated
Today
Waning Crescent
Sep 24
New
Oct 1
First Quarter
Oct 8
Full
Oct 15
Last Quarter

Today's Extremes

State Highs State Lows

Community

WunderPhotos

Upload Photos

1,754,608 photos uploaded!

WunderBlogs® & News

Nearby

Air Quality

  Air Quality AQ Index Pollutant
Yesterday Good
OZONE
Friday Good
PM10
Friday Good
OZONE
Saturday Good
OZONE
Saturday Good
PM10
Sunday Good
OZONE
Sunday Good
PM10

Snow Depth

Station Depth Elevation
No new snow has been reported.

Earthquake Activity

City Distance Mag. Time & Date
No recent earthquake activity has been reported nearby.
Minimum magnitude displayed is 2.5.

Coastal Water Temperatures

Place Temperature
No Stations Reporting

Nearby Weather Stations